Time;durP1;ratioP1;P1;durP2;ratioP2;P2;SDS_P1;SDS_P2;PMS_P1;PMS_P2;Temp;Humidity;BMP_temperature;BMP_pressure;BME280_temperature;BME280_humidity;BME280_pressure;Samples;Min_cycle;Max_cycle;Signal;HPM_P1;HPM_P2
2021/08/03 00:00:07;;;;;;;;;;;;;;;19.21;43.03;100760.63;5104938;28;19928;-59
2021/08/03 00:02:44;;;;;;;;;;;;;;;18.73;42.42;100759.06;5107250;28;19942;-59
2021/08/03 00:05:17;;;;;;;;;;;;;;;19.14;42.70;100760.16;5106775;28;19967;-59
2021/08/03 00:07:46;;;;;;;;;;;;;;;19.54;43.59;100762.09;5104598;28;19971;-59
2021/08/03 00:10:17;;;;;;;;;;;;;;;19.76;43.23;100763.38;5103965;28;19928;-59
2021/08/03 00:12:49;;;;;;;;;;;;;;;19.88;43.03;100760.78;5099399;28;19952;-57
2021/08/03 00:15:19;;;;;;;;;;;;;;;19.51;43.75;100765.00;5104650;28;20018;-59
2021/08/03 00:17:47;;;;;;;;;;;;;;;19.01;42.25;100772.63;5106767;28;19931;-59
2021/08/03 00:20:15;;;;;;;;;;;;;;;19.31;43.14;100764.44;5102029;28;19954;-59
2021/08/03 00:22:43;;;;;;;;;;;;;;;19.64;43.93;100765.91;5105659;28;19942;-60
2021/08/03 00:25:12;;;;;;;;;;;;;;;19.82;43.62;100768.41;5109775;28;20042;-59
2021/08/03 00:27:42;;;;;;;;;;;;;;;19.94;43.51;100772.09;5107983;28;19932;-59
2021/08/03 00:30:11;;;;;;;;;;;;;;;19.64;44.45;100778.47;5109461;28;19958;-59
2021/08/03 00:32:41;;;;;;;;;;;;;;;19.26;44.95;100765.72;5105506;28;20015;-58
2021/08/03 00:35:10;;;;;;;;;;;;;;;19.03;45.11;100768.88;5110580;28;19931;-59
2021/08/03 00:37:38;;;;;;;;;;;;;;;19.25;44.97;100767.50;5106619;28;20004;-60
2021/08/03 00:40:08;;;;;;;;;;;;;;;19.60;44.90;100771.59;5103627;28;19938;-60
2021/08/03 00:42:37;;;;;;;;;;;;;;;19.80;44.43;100765.75;5103733;28;19932;-60
2021/08/03 00:45:08;;;;;;;;;;;;;;;19.94;43.98;100772.94;5110903;28;20343;-60
2021/08/03 00:47:43;;;;;;;;;;;;;;;19.80;43.94;100764.91;5110365;27;19928;-59
2021/08/03 00:50:11;;;;;;;;;;;;;;;19.10;42.45;100771.19;5106760;28;19935;-59
2021/08/03 00:52:41;;;;;;;;;;;;;;;18.88;44.15;100777.84;5107862;28;19930;-59
2021/08/03 00:55:12;;;;;;;;;;;;;;;18.78;44.99;100774.88;5138955;27;19928;-60
2021/08/03 00:57:43;;;;;;;;;;;;;;;18.93;44.88;100778.44;5105092;28;19970;-60
2021/08/03 01:00:15;;;;;;;;;;;;;;;19.41;44.86;100776.31;5105786;28;19931;-59
2021/08/03 01:02:43;;;;;;;;;;;;;;;19.68;44.10;100778.16;5123226;27;19928;-59
2021/08/03 01:05:13;;;;;;;;;;;;;;;19.85;44.04;100779.78;5109804;28;19927;-59
2021/08/03 01:07:43;;;;;;;;;;;;;;;19.91;44.64;100781.22;5109892;28;19950;-60
2021/08/03 01:10:23;;;;;;;;;;;;;;;19.08;42.71;100777.50;5124682;27;19924;-60
2021/08/03 01:12:55;;;;;;;;;;;;;;;18.82;43.01;100781.78;5114711;28;19981;-59
2021/08/03 01:15:29;;;;;;;;;;;;;;;19.31;42.63;100774.31;5102809;28;20064;-59
2021/08/03 01:18:03;;;;;;;;;;;;;;;19.63;43.73;100772.22;5104704;27;20026;-59
2021/08/03 01:20:35;;;;;;;;;;;;;;;19.83;44.02;100775.47;5099393;28;19924;-57
2021/08/03 01:23:11;;;;;;;;;;;;;;;19.93;43.73;100773.91;5100791;28;20303;-59
2021/08/03 01:25:43;;;;;;;;;;;;;;;19.50;42.95;100780.22;5099663;28;19963;-58
2021/08/03 01:28:15;;;;;;;;;;;;;;;18.92;41.80;100782.06;5108710;28;19959;-59
2021/08/03 01:30:47;;;;;;;;;;;;;;;19.41;42.84;100788.88;5108847;28;20014;-59
2021/08/03 01:33:17;;;;;;;;;;;;;;;19.72;44.13;100786.88;5103251;28;19924;-59
2021/08/03 01:35:46;;;;;;;;;;;;;;;19.90;43.98;100795.59;5109518;28;20502;-59
2021/08/03 01:38:17;;;;;;;;;;;;;;;20.00;43.76;100796.69;5107673;27;19923;-60
2021/08/03 01:40:49;;;;;;;;;;;;;;;19.46;42.48;100791.25;5106776;28;19928;-60
2021/08/03 01:43:18;;;;;;;;;;;;;;;19.02;42.41;100798.47;5102845;28;19928;-58
2021/08/03 01:45:49;;;;;;;;;;;;;;;19.29;42.59;100795.88;5102611;28;19932;-60
2021/08/03 01:48:18;;;;;;;;;;;;;;;19.65;43.57;100802.53;5108962;28;19973;-59
2021/08/03 01:50:49;;;;;;;;;;;;;;;19.84;43.25;100795.97;5104400;28;19950;-59
2021/08/03 01:53:19;;;;;;;;;;;;;;;19.96;42.94;100795.19;5105670;27;19992;-60
2021/08/03 01:55:48;;;;;;;;;;;;;;;19.71;43.31;100804.81;5103385;28;19966;-60
2021/08/03 01:58:22;;;;;;;;;;;;;;;19.21;44.73;100809.78;5103545;28;19934;-59
2021/08/03 02:00:55;;;;;;;;;;;;;;;19.40;44.31;100804.09;5108526;27;19924;-59
2021/08/03 02:03:26;;;;;;;;;;;;;;;19.71;44.25;100806.63;5105506;28;19943;-60
2021/08/03 02:06:09;;;;;;;;;;;;;;;19.88;43.90;100805.53;5111897;28;19932;-60
2021/08/03 02:08:39;;;;;;;;;;;;;;;20.00;43.65;100804.75;5105599;28;20042;-60
2021/08/03 02:11:12;;;;;;;;;;;;;;;19.66;43.00;100806.94;5107812;28;19946;-60
2021/08/03 02:13:44;;;;;;;;;;;;;;;18.99;42.13;100818.28;5107064;28;19973;-60
2021/08/03 02:16:20;;;;;;;;;;;;;;;19.48;43.25;100810.81;5107674;28;19928;-60
2021/08/03 02:18:55;;;;;;;;;;;;;;;19.78;43.99;100810.63;5141345;27;20014;-60
2021/08/03 02:21:28;;;;;;;;;;;;;;;19.93;43.95;100813.31;5106599;28;19995;-60
2021/08/03 02:23:57;;;;;;;;;;;;;;;20.02;43.96;100818.91;5104567;28;19935;-61
2021/08/03 02:26:28;;;;;;;;;;;;;;;19.47;43.58;100814.44;5104025;28;19934;-60
2021/08/03 02:28:59;;;;;;;;;;;;;;;19.38;43.27;100814.06;5105934;28;19951;-60
2021/08/03 02:31:31;;;;;;;;;;;;;;;19.72;44.39;100814.59;5115192;28;19970;-60
2021/08/03 02:34:03;;;;;;;;;;;;;;;19.90;44.00;100817.06;5107605;28;19932;-60
2021/08/03 02:36:38;;;;;;;;;;;;;;;20.02;43.64;100818.06;5104767;28;19939;-60
2021/08/03 02:39:08;;;;;;;;;;;;;;;19.88;43.66;100819.84;5103968;28;19928;-61
2021/08/03 02:41:37;;;;;;;;;;;;;;;19.35;44.97;100821.44;5105067;28;20015;-61
2021/08/03 02:44:07;;;;;;;;;;;;;;;19.67;44.55;100824.75;5112463;28;20002;-60
2021/08/03 02:46:36;;;;;;;;;;;;;;;19.88;44.66;100835.97;5135131;27;20102;-61
2021/08/03 02:49:07;;;;;;;;;;;;;;;20.01;44.61;100830.63;5102468;28;19943;-60
2021/08/03 02:51:36;;;;;;;;;;;;;;;20.08;44.65;100833.78;5106836;28;19928;-60
2021/08/03 02:54:22;;;;;;;;;;;;;;;19.55;43.72;100822.84;5102826;28;19959;-60
2021/08/03 02:56:54;;;;;;;;;;;;;;;19.15;45.17;100833.44;5120053;27;19935;-60
2021/08/03 02:59:26;;;;;;;;;;;;;;;19.63;44.04;100830.41;5108159;28;19924;-61
2021/08/03 03:01:55;;;;;;;;;;;;;;;19.86;44.57;100829.81;5118512;27;19928;-60
2021/08/03 03:04:24;;;;;;;;;;;;;;;20.01;44.19;100827.94;5102427;28;19932;-60
2021/08/03 03:06:55;;;;;;;;;;;;;;;20.07;43.81;100832.91;5113375;28;19924;-61
2021/08/03 03:09:27;;;;;;;;;;;;;;;19.48;44.89;100833.13;5102209;27;20375;-60
2021/08/03 03:11:57;;;;;;;;;;;;;;;19.56;43.89;100838.00;5099606;27;20307;-60
2021/08/03 03:14:27;;;;;;;;;;;;;;;19.82;44.54;100843.56;5114945;27;20067;-60
2021/08/03 03:16:57;;;;;;;;;;;;;;;19.99;44.41;100845.97;5136502;27;20000;-60
2021/08/03 03:19:27;;;;;;;;;;;;;;;20.07;44.34;100838.28;5105325;28;19924;-60
2021/08/03 03:21:56;;;;;;;;;;;;;;;19.98;44.92;100841.56;5105645;28;19996;-60
2021/08/03 03:24:25;;;;;;;;;;;;;;;19.50;45.33;100838.38;5102296;28;19924;-60
2021/08/03 03:26:55;;;;;;;;;;;;;;;19.80;45.05;100830.16;5105426;28;19924;-60
2021/08/03 03:29:25;;;;;;;;;;;;;;;19.98;44.92;100840.72;5103112;28;20027;-60
2021/08/03 03:31:56;;;;;;;;;;;;;;;20.07;44.89;100840.13;5104766;28;19931;-60
2021/08/03 03:34:25;;;;;;;;;;;;;;;20.13;44.97;100830.78;5134071;27;20018;-60
2021/08/03 03:36:55;;;;;;;;;;;;;;;19.44;43.44;100842.31;5107108;28;19939;-61
2021/08/03 03:39:25;;;;;;;;;;;;;;;19.47;43.57;100836.75;5102189;28;19948;-61
2021/08/03 03:42:01;;;;;;;;;;;;;;;19.81;45.19;100842.66;5109143;28;19924;-60
2021/08/03 03:44:30;;;;;;;;;;;;;;;19.98;44.62;100838.88;5099457;28;19977;-60
2021/08/03 03:47:02;;;;;;;;;;;;;;;20.09;44.67;100856.13;5102374;28;19946;-61
2021/08/03 03:49:34;;;;;;;;;;;;;;;20.00;45.39;100853.09;5104307;28;19935;-60
2021/08/03 03:52:05;;;;;;;;;;;;;;;19.29;42.84;100854.00;5103724;28;20047;-60
2021/08/03 03:54:36;;;;;;;;;;;;;;;19.54;43.90;100856.88;5107001;28;20055;-60
2021/08/03 03:57:05;;;;;;;;;;;;;;;19.85;44.81;100864.81;5104298;28;19932;-60
2021/08/03 03:59:36;;;;;;;;;;;;;;;20.00;44.60;100863.81;5101215;28;19924;-60
2021/08/03 04:02:08;;;;;;;;;;;;;;;20.10;44.76;100869.44;5098631;28;19932;-59
2021/08/03 04:04:39;;;;;;;;;;;;;;;20.21;45.92;100857.97;5105459;28;19974;-64
2021/08/03 04:07:07;;;;;;;;;;;;;;;19.39;43.50;100866.72;5105037;28;19996;-60
2021/08/03 04:09:38;;;;;;;;;;;;;;;19.39;43.70;100863.19;5140248;27;19924;-60
2021/08/03 04:12:13;;;;;;;;;;;;;;;19.83;45.38;100854.19;5111000;27;19923;-58
2021/08/03 04:14:44;;;;;;;;;;;;;;;20.09;45.83;100861.50;5111205;27;19928;-58
2021/08/03 04:17:18;;;;;;;;;;;;;;;20.20;45.76;100865.19;5124267;27;19924;-60
2021/08/03 04:19:46;;;;;;;;;;;;;;;20.28;46.51;100853.94;5110925;28;19936;-65
2021/08/03 04:22:14;;;;;;;;;;;;;;;19.60;44.50;100865.50;5107151;28;19982;-59
2021/08/03 04:24:42;;;;;;;;;;;;;;;19.40;46.51;100862.25;5109784;28;19932;-57
2021/08/03 04:27:10;;;;;;;;;;;;;;;19.26;46.44;100857.75;5112730;28;19953;-62
2021/08/03 04:29:38;;;;;;;;;;;;;;;19.39;46.66;100865.88;5142232;27;22286;-60
2021/08/03 04:32:06;;;;;;;;;;;;;;;19.81;47.52;100858.78;5118345;28;19927;-62
2021/08/03 04:34:35;;;;;;;;;;;;;;;20.03;47.00;100862.75;5110074;28;19928;-61
2021/08/03 04:37:03;;;;;;;;;;;;;;;20.14;46.66;100862.91;5109895;28;20011;-60
2021/08/03 04:39:32;;;;;;;;;;;;;;;20.25;46.60;100870.28;5109514;28;19965;-60
2021/08/03 04:42:00;;;;;;;;;;;;;;;19.51;43.91;100870.47;5103190;28;19932;-61
2021/08/03 04:44:28;;;;;;;;;;;;;;;19.14;44.37;100877.28;5106681;28;19938;-61
2021/08/03 04:46:56;;;;;;;;;;;;;;;19.42;44.38;100881.78;5112679;28;19927;-62
2021/08/03 04:49:24;;;;;;;;;;;;;;;19.80;46.00;100881.16;5109031;28;19954;-61
2021/08/03 04:51:53;;;;;;;;;;;;;;;20.04;46.19;100883.25;5112894;27;19954;-61
2021/08/03 04:54:22;;;;;;;;;;;;;;;20.17;46.39;100884.19;5110145;27;19932;-61
2021/08/03 04:56:50;;;;;;;;;;;;;;;20.11;45.18;100883.75;5119778;28;19928;-62
2021/08/03 04:59:19;;;;;;;;;;;;;;;19.33;43.70;100885.03;5115161;28;19999;-62
2021/08/03 05:01:47;;;;;;;;;;;;;;;19.43;44.27;100888.88;5120116;27;19934;-62
2021/08/03 05:04:16;;;;;;;;;;;;;;;19.85;45.75;100888.97;5114946;28;20382;-61
2021/08/03 05:06:44;;;;;;;;;;;;;;;20.07;45.97;100889.28;5108523;28;19935;-61
2021/08/03 05:09:13;;;;;;;;;;;;;;;20.20;46.15;100894.72;5111257;28;19967;-61
2021/08/03 05:11:41;;;;;;;;;;;;;;;20.11;44.95;100895.34;5112482;28;19993;-61
2021/08/03 05:14:09;;;;;;;;;;;;;;;19.51;46.04;100891.94;5109711;28;20336;-61
2021/08/03 05:16:37;;;;;;;;;;;;;;;19.32;46.53;100897.59;5106135;28;19950;-61
2021/08/03 05:19:05;;;;;;;;;;;;;;;19.37;46.75;100899.97;5117267;28;20037;-62
2021/08/03 05:21:33;;;;;;;;;;;;;;;19.80;46.76;100899.94;5106275;28;19993;-61
2021/08/03 05:24:01;;;;;;;;;;;;;;;20.06;47.34;100902.81;5109277;28;19928;-62
2021/08/03 05:26:33;;;;;;;;;;;;;;;20.21;47.78;100899.16;5108702;27;19931;-65
2021/08/03 05:29:02;;;;;;;;;;;;;;;20.32;48.80;100905.63;5110328;28;19928;-63
2021/08/03 05:31:30;;;;;;;;;;;;;;;19.65;47.05;100903.63;5107121;28;19991;-68
2021/08/03 05:34:00;;;;;;;;;;;;;;;19.29;47.18;100899.59;5108665;28;19981;-69
2021/08/03 05:36:28;;;;;;;;;;;;;;;19.13;47.42;100905.03;5107328;27;19924;-67
2021/08/03 05:38:56;;;;;;;;;;;;;;;19.18;49.62;100898.44;5100188;28;20000;-65
2021/08/03 05:44:57;;;;;;;;;;;;;;;20.13;50.41;100912.22;5106141;28;19924;-60
2021/08/03 05:47:25;;;;;;;;;;;;;;;20.27;49.71;100908.63;5104266;27;20396;-67
2021/08/03 05:49:53;;;;;;;;;;;;;;;20.23;49.00;100904.41;5108873;28;19935;-65
2021/08/03 05:52:20;;;;;;;;;;;;;;;19.53;46.82;100913.31;5110693;28;19932;-63
2021/08/03 05:54:49;;;;;;;;;;;;;;;19.32;46.99;100900.28;5111877;28;19938;-65
2021/08/03 05:57:16;;;;;;;;;;;;;;;19.16;47.02;100908.41;5114481;28;19954;-64
2021/08/03 05:59:44;;;;;;;;;;;;;;;19.16;48.09;100908.41;5108485;28;20314;-63
2021/08/03 06:02:13;;;;;;;;;;;;;;;19.09;49.07;100915.06;5106767;28;19990;-64
2021/08/03 06:04:42;;;;;;;;;;;;;;;19.10;48.57;100916.81;5103951;28;19935;-60
2021/08/03 06:07:10;;;;;;;;;;;;;;;19.12;48.60;100919.41;5105018;28;19928;-63
2021/08/03 06:09:40;;;;;;;;;;;;;;;19.36;49.07;100911.69;5105183;28;19962;-61
2021/08/03 06:12:08;;;;;;;;;;;;;;;19.82;50.55;100907.97;5111205;28;19942;-64
2021/08/03 06:14:37;;;;;;;;;;;;;;;20.09;50.25;100912.50;5110835;28;19999;-60
2021/08/03 06:17:07;;;;;;;;;;;;;;;20.30;48.01;100912.94;5109776;27;20026;-58
2021/08/03 06:19:41;;;;;;;;;;;;;;;20.27;48.45;100916.69;5109581;28;20031;-59
2021/08/03 06:22:10;;;;;;;;;;;;;;;19.37;45.87;100914.28;5105034;27;19935;-59
2021/08/03 06:24:39;;;;;;;;;;;;;;;19.14;46.60;100918.34;5104904;28;19939;-58
2021/08/03 06:27:08;;;;;;;;;;;;;;;19.01;45.97;100918.22;5101495;28;19930;-58
2021/08/03 06:29:37;;;;;;;;;;;;;;;19.18;47.42;100917.19;5106413;28;19928;-57
2021/08/03 06:32:06;;;;;;;;;;;;;;;19.69;48.39;100919.44;5109057;28;19928;-58
2021/08/03 06:34:35;;;;;;;;;;;;;;;19.98;48.52;100922.13;5110165;28;19930;-57
2021/08/03 06:37:04;;;;;;;;;;;;;;;20.14;48.40;100930.03;5108583;28;19928;-58
2021/08/03 06:39:33;;;;;;;;;;;;;;;20.18;47.59;100923.50;5108742;28;19932;-58
2021/08/03 06:42:03;;;;;;;;;;;;;;;19.44;46.00;100922.78;5107177;28;19950;-55
2021/08/03 06:44:34;;;;;;;;;;;;;;;19.20;45.26;100917.09;5104441;28;19924;-58
2021/08/03 06:47:04;;;;;;;;;;;;;;;19.32;45.66;100924.41;5113962;28;19928;-58
2021/08/03 06:49:33;;;;;;;;;;;;;;;19.79;47.05;100929.59;5110491;28;19928;-58
2021/08/03 06:52:01;;;;;;;;;;;;;;;20.05;47.81;100936.00;5114536;28;20034;-58
2021/08/03 06:54:30;;;;;;;;;;;;;;;20.19;47.31;100937.81;5107796;27;19981;-58
2021/08/03 06:57:06;;;;;;;;;;;;;;;20.29;47.28;100940.75;5106047;28;19982;-58
2021/08/03 06:59:34;;;;;;;;;;;;;;;19.70;45.40;100936.41;5101614;28;20404;-58
2021/08/03 07:02:05;;;;;;;;;;;;;;;19.25;44.41;100939.13;5104359;28;19924;-58
2021/08/03 07:04:36;;;;;;;;;;;;;;;19.26;45.49;100940.88;5106254;28;19998;-57
2021/08/03 07:07:04;;;;;;;;;;;;;;;19.76;46.21;100933.31;5110084;28;19955;-58
2021/08/03 07:09:34;;;;;;;;;;;;;;;20.04;46.62;100939.63;5114443;28;19928;-57
2021/08/03 07:12:05;;;;;;;;;;;;;;;20.18;46.66;100936.94;5108729;28;19928;-58
2021/08/03 07:14:34;;;;;;;;;;;;;;;20.27;46.16;100934.63;5104666;28;19988;-59
2021/08/03 07:17:04;;;;;;;;;;;;;;;19.92;45.68;100933.22;5107844;28;20007;-59
2021/08/03 07:19:33;;;;;;;;;;;;;;;19.29;43.91;100932.66;5107885;28;19924;-58
2021/08/03 07:22:01;;;;;;;;;;;;;;;19.40;44.91;100935.53;5101848;28;19935;-58
2021/08/03 07:24:30;;;;;;;;;;;;;;;19.83;46.77;100941.88;5113045;28;19932;-58
2021/08/03 07:26:59;;;;;;;;;;;;;;;20.06;46.33;100940.41;5104455;28;19932;-58
2021/08/03 07:29:27;;;;;;;;;;;;;;;20.19;46.37;100946.72;5106083;28;19924;-59
2021/08/03 07:31:55;;;;;;;;;;;;;;;20.28;46.33;100953.31;5111493;28;19932;-58
2021/08/03 07:34:23;;;;;;;;;;;;;;;19.80;45.29;100948.25;5106369;28;19947;-58
2021/08/03 07:36:51;;;;;;;;;;;;;;;19.31;44.12;100951.34;5110727;28;19924;-57
2021/08/03 07:39:20;;;;;;;;;;;;;;;19.32;44.94;100951.22;5110174;28;19994;-58
2021/08/03 07:41:47;;;;;;;;;;;;;;;19.80;46.02;100948.25;5101333;28;19928;-58
2021/08/03 07:44:17;;;;;;;;;;;;;;;20.05;45.80;100954.78;5109498;28;19931;-58
2021/08/03 07:46:47;;;;;;;;;;;;;;;20.20;45.84;100951.13;5111493;28;20218;-56
2021/08/03 07:49:19;;;;;;;;;;;;;;;20.30;45.73;100955.91;5111718;28;19935;-57
2021/08/03 07:51:48;;;;;;;;;;;;;;;20.03;45.86;100960.28;5106733;28;20018;-58
2021/08/03 07:54:16;;;;;;;;;;;;;;;19.43;43.46;100950.56;5113277;28;19951;-58
2021/08/03 07:56:44;;;;;;;;;;;;;;;19.66;44.73;100962.56;5116786;28;19927;-58
2021/08/03 07:59:12;;;;;;;;;;;;;;;19.99;45.40;100961.44;5114142;28;19962;-58
2021/08/03 08:01:41;;;;;;;;;;;;;;;20.18;46.15;100957.56;5108383;28;19924;-58
2021/08/03 08:04:10;;;;;;;;;;;;;;;20.30;45.91;100954.06;5105749;28;19928;-59
2021/08/03 08:06:38;;;;;;;;;;;;;;;20.11;45.29;100953.56;5105358;28;19932;-58
2021/08/03 08:09:17;;;;;;;;;;;;;;;19.48;44.94;100955.66;5101487;28;19928;-58
2021/08/03 08:11:45;;;;;;;;;;;;;;;19.53;44.90;100956.25;5108583;28;19924;-56
2021/08/03 08:14:13;;;;;;;;;;;;;;;19.95;46.03;100954.53;5105655;28;19935;-58
2021/08/03 08:16:43;;;;;;;;;;;;;;;20.17;46.20;100953.16;5106365;28;19931;-58
2021/08/03 08:19:11;;;;;;;;;;;;;;;20.31;46.00;100954.94;5106646;28;20380;-58
2021/08/03 08:21:39;;;;;;;;;;;;;;;20.27;45.80;100956.13;5106911;28;20027;-57
2021/08/03 08:24:07;;;;;;;;;;;;;;;19.65;46.25;100954.63;5105884;28;19924;-58
2021/08/03 08:26:35;;;;;;;;;;;;;;;19.38;46.96;100958.91;5101968;28;19927;-57
2021/08/03 08:29:05;;;;;;;;;;;;;;;19.56;46.84;100956.03;5104068;28;20003;-57
2021/08/03 08:31:34;;;;;;;;;;;;;;;19.95;47.02;100957.22;5106408;28;19939;-57
2021/08/03 08:34:04;;;;;;;;;;;;;;;20.17;46.47;100955.84;5107125;28;19928;-58
2021/08/03 08:36:32;;;;;;;;;;;;;;;20.31;46.66;100950.44;5103312;28;19950;-58
2021/08/03 08:39:00;;;;;;;;;;;;;;;20.36;46.53;100956.34;5106073;28;19936;-58
2021/08/03 08:41:28;;;;;;;;;;;;;;;19.54;44.23;100956.16;5107192;28;19968;-58
2021/08/03 08:43:56;;;;;;;;;;;;;;;19.20;44.38;100954.66;5105118;28;19928;-58
2021/08/03 08:46:24;;;;;;;;;;;;;;;19.14;46.29;100958.56;5104004;28;19928;-58
2021/08/03 08:48:52;;;;;;;;;;;;;;;19.51;46.01;100958.16;5108253;28;19923;-57
2021/08/03 08:51:22;;;;;;;;;;;;;;;19.90;45.96;100954.81;5106201;28;19928;-58
2021/08/03 08:53:51;;;;;;;;;;;;;;;20.14;45.79;100958.72;5105425;28;20446;-57
2021/08/03 08:56:19;;;;;;;;;;;;;;;20.28;45.79;100961.38;5110274;28;19924;-58
2021/08/03 08:58:47;;;;;;;;;;;;;;;20.26;46.16;100963.28;5108304;28;19924;-58
2021/08/03 09:01:15;;;;;;;;;;;;;;;19.58;43.74;100960.34;5105545;27;19928;-59
2021/08/03 09:03:46;;;;;;;;;;;;;;;19.16;43.87;100963.84;5118326;28;19949;-58
2021/08/03 09:06:19;;;;;;;;;;;;;;;19.69;45.12;100958.84;5112113;28;19935;-58
2021/08/03 09:08:49;;;;;;;;;;;;;;;20.03;45.41;100960.28;5110032;28;20359;-58
2021/08/03 09:11:18;;;;;;;;;;;;;;;20.21;45.56;100952.88;5111724;28;20022;-57
2021/08/03 09:13:56;;;;;;;;;;;;;;;20.33;45.79;100955.69;5108022;28;19924;-57
2021/08/03 09:16:25;;;;;;;;;;;;;;;20.02;45.13;100961.22;5113502;28;19943;-58
2021/08/03 09:18:54;;;;;;;;;;;;;;;19.44;42.84;100959.50;5113497;28;20329;-58
2021/08/03 09:21:24;;;;;;;;;;;;;;;19.27;44.28;100968.56;5115610;28;19923;-58
2021/08/03 09:23:55;;;;;;;;;;;;;;;19.83;45.01;100961.56;5109321;28;19924;-59
2021/08/03 09:26:38;;;;;;;;;;;;;;;20.11;45.16;100965.16;5106476;28;19924;-59
2021/08/03 09:29:07;;;;;;;;;;;;;;;20.29;45.82;100967.59;5103496;28;19932;-59
2021/08/03 09:31:36;;;;;;;;;;;;;;;20.37;45.24;100971.53;5111002;28;19928;-59
2021/08/03 09:34:10;;;;;;;;;;;;;;;20.43;44.86;100962.19;5115027;28;19955;-60
2021/08/03 09:36:45;;;;;;;;;;;;;;;19.70;43.45;100961.41;5116705;28;19967;-59
2021/08/03 09:39:38;;;;;;;;;;;;;;;19.32;43.77;100967.31;5103557;28;19958;-59
2021/08/03 09:42:07;;;;;;;;;;;;;;;19.16;43.65;100962.03;5109232;28;19947;-59
2021/08/03 09:44:37;;;;;;;;;;;;;;;19.82;44.64;100956.28;5114189;28;19935;-57
2021/08/03 09:47:07;;;;;;;;;;;;;;;20.18;44.54;100955.72;5109755;28;19924;-59
2021/08/03 09:49:35;;;;;;;;;;;;;;;20.37;44.79;100963.47;5116440;28;19935;-57
2021/08/03 09:52:06;;;;;;;;;;;;;;;20.47;43.84;100962.84;5116506;28;20015;-59
2021/08/03 09:54:35;;;;;;;;;;;;;;;20.11;44.40;100962.47;5115099;28;19924;-58
2021/08/03 09:57:05;;;;;;;;;;;;;;;19.51;43.45;100961.69;5113702;28;19927;-58
2021/08/03 09:59:34;;;;;;;;;;;;;;;19.27;42.94;100961.38;5107289;28;19987;-59
2021/08/03 10:02:03;;;;;;;;;;;;;;;19.53;42.91;100964.28;5111839;28;20046;-59
2021/08/03 10:04:32;;;;;;;;;;;;;;;20.06;44.08;100952.00;5100985;28;19977;-55
2021/08/03 10:07:01;;;;;;;;;;;;;;;20.46;43.71;100962.00;5118234;27;19931;-59
2021/08/03 10:09:29;;;;;;;;;;;;;;;20.59;43.04;100961.19;5105052;28;20499;-59
2021/08/03 10:11:58;;;;;;;;;;;;;;;20.59;43.52;100962.03;5110198;28;19972;-59
2021/08/03 10:14:28;;;;;;;;;;;;;;;20.21;43.81;100968.97;5116045;28;19927;-59
2021/08/03 10:16:57;;;;;;;;;;;;;;;19.47;42.12;100962.84;5110653;28;19924;-59
2021/08/03 10:19:26;;;;;;;;;;;;;;;19.15;43.06;100968.34;5111382;28;19946;-56
2021/08/03 10:22:01;;;;;;;;;;;;;;;19.15;42.64;100967.50;5107715;28;19928;-59
2021/08/03 10:24:31;;;;;;;;;;;;;;;19.35;43.64;100963.59;5106385;28;19923;-59
2021/08/03 10:27:04;;;;;;;;;;;;;;;19.84;43.67;100965.97;5104615;28;19935;-66
2021/08/03 10:29:34;;;;;;;;;;;;;;;20.14;43.74;100972.16;5102322;28;19927;-62
2021/08/03 10:32:03;;;;;;;;;;;;;;;20.31;44.04;100973.75;5109337;28;19935;-62
2021/08/03 10:34:49;;;;;;;;;;;;;;;20.40;44.07;100965.94;5108846;28;20504;-64
2021/08/03 10:37:17;;;;;;;;;;;;;;;19.66;43.50;100964.38;5111606;28;19928;-61
2021/08/03 10:39:49;;;;;;;;;;;;;;;19.29;42.73;100972.88;5110859;28;19934;-67
2021/08/03 10:42:17;;;;;;;;;;;;;;;19.36;44.17;100968.00;5103389;28;19928;-62
2021/08/03 10:44:48;;;;;;;;;;;;;;;19.34;45.88;100969.91;5107789;28;19928;-62
2021/08/03 10:47:36;;;;;;;;;;;;;;;19.32;45.92;100970.00;5106320;28;19928;-60
2021/08/03 10:50:06;;;;;;;;;;;;;;;19.23;46.20;100962.53;5103253;28;19984;-67
2021/08/03 10:52:52;;;;;;;;;;;;;;;19.15;46.66;100964.81;5104844;28;19931;-67
2021/08/03 10:55:30;;;;;;;;;;;;;;;19.12;45.88;100978.38;5107402;28;19924;-61
2021/08/03 10:58:17;;;;;;;;;;;;;;;19.03;44.25;100983.34;5103098;28;19995;-63
2021/08/03 11:00:48;;;;;;;;;;;;;;;18.98;43.68;100979.22;5107655;28;19927;-65
2021/08/03 11:03:41;;;;;;;;;;;;;;;18.97;43.40;100986.38;5106483;28;19935;-58
2021/08/03 11:06:33;;;;;;;;;;;;;;;19.22;42.93;100979.56;5097685;28;19924;-58
2021/08/03 11:09:03;;;;;;;;;;;;;;;19.82;44.05;100972.38;5107187;28;19932;-59
2021/08/03 11:11:32;;;;;;;;;;;;;;;20.10;44.19;100982.22;5101592;28;19932;-59
2021/08/03 11:14:04;;;;;;;;;;;;;;;20.26;43.68;100983.94;5104704;28;20703;-58
2021/08/03 11:16:48;;;;;;;;;;;;;;;20.32;43.37;100988.91;5103285;28;19924;-58
2021/08/03 11:19:35;;;;;;;;;;;;;;;19.61;43.72;100986.13;5107502;28;19971;-59
2021/08/03 11:22:05;;;;;;;;;;;;;;;19.23;42.78;100986.66;5102208;28;19924;-59
2021/08/03 11:24:35;;;;;;;;;;;;;;;19.05;43.14;100994.81;5104528;28;20338;-58
2021/08/03 11:27:04;;;;;;;;;;;;;;;19.01;43.54;101003.16;5106847;28;19928;-60
2021/08/03 11:29:34;;;;;;;;;;;;;;;19.44;43.83;100987.16;5106067;28;19992;-60
2021/08/03 11:32:05;;;;;;;;;;;;;;;19.37;46.43;100994.72;5107863;27;19945;-60
2021/08/03 11:34:35;;;;;;;;;;;;;;;19.47;46.60;100992.34;5110288;28;19924;-60
2021/08/03 11:37:11;;;;;;;;;;;;;;;19.49;46.89;101001.16;5107525;28;19931;-59
2021/08/03 11:39:41;;;;;;;;;;;;;;;19.86;46.36;101001.59;5102705;28;19928;-60
2021/08/03 11:42:10;;;;;;;;;;;;;;;20.07;46.36;101006.59;5104396;28;19924;-60
2021/08/03 11:44:38;;;;;;;;;;;;;;;20.18;46.61;101004.06;5108702;28;20150;-63
2021/08/03 11:47:09;;;;;;;;;;;;;;;20.25;46.67;101007.25;5109200;28;19935;-66
2021/08/03 11:49:38;;;;;;;;;;;;;;;19.78;46.69;101003.00;5106610;28;20035;-64
2021/08/03 11:52:13;;;;;;;;;;;;;;;19.67;45.96;101001.88;5109015;28;19924;-64
2021/08/03 11:54:42;;;;;;;;;;;;;;;19.55;47.11;101005.28;5105181;28;19925;-65
2021/08/03 11:57:24;;;;;;;;;;;;;;;19.36;47.70;101014.47;5108329;28;19924;-61
2021/08/03 12:00:03;;;;;;;;;;;;;;;19.33;48.24;101013.78;5104957;28;19924;-66
2021/08/03 12:02:33;;;;;;;;;;;;;;;19.80;47.93;101007.31;5106808;28;19994;-66
2021/08/03 12:05:19;;;;;;;;;;;;;;;20.05;47.52;101011.19;5109520;28;19924;-66
2021/08/03 12:07:52;;;;;;;;;;;;;;;20.18;47.90;101014.81;5108029;28;19951;-64
2021/08/03 12:10:22;;;;;;;;;;;;;;;20.24;48.00;101014.44;5101485;28;19966;-65
2021/08/03 12:12:50;;;;;;;;;;;;;;;19.55;46.14;101024.06;5102399;28;20406;-68
2021/08/03 12:15:19;;;;;;;;;;;;;;;19.38;46.15;101019.72;5105253;28;19936;-62
2021/08/03 12:17:49;;;;;;;;;;;;;;;19.22;48.07;101019.78;5104067;28;19928;-65
2021/08/03 12:20:22;;;;;;;;;;;;;;;19.26;48.24;101025.84;5109090;28;19950;-66
2021/08/03 12:22:50;;;;;;;;;;;;;;;19.73;48.04;101016.72;5109288;28;20096;-62
2021/08/03 12:25:18;;;;;;;;;;;;;;;20.00;47.95;101014.19;5115070;27;19924;-64
2021/08/03 12:27:48;;;;;;;;;;;;;;;20.16;47.88;101014.06;5109650;27;19998;-61
2021/08/03 12:30:35;;;;;;;;;;;;;;;20.24;47.85;101010.91;5114156;28;19993;-62
2021/08/03 12:33:06;;;;;;;;;;;;;;;19.48;45.92;101010.16;5107557;28;19993;-62
2021/08/03 12:35:39;;;;;;;;;;;;;;;19.50;44.90;101013.63;5111358;28;20367;-62
2021/08/03 12:38:14;;;;;;;;;;;;;;;19.50;46.32;101010.97;5111306;27;19954;-66
2021/08/03 12:40:42;;;;;;;;;;;;;;;20.03;46.60;101013.97;5108253;28;19924;-66
2021/08/03 12:43:10;;;;;;;;;;;;;;;20.27;46.75;101005.31;5113542;28;19939;-67
2021/08/03 12:45:42;;;;;;;;;;;;;;;20.46;46.34;101010.38;5103982;28;19992;-65
2021/08/03 12:48:12;;;;;;;;;;;;;;;20.59;45.84;101004.19;5110447;28;19924;-64
2021/08/03 12:50:47;;;;;;;;;;;;;;;20.13;45.31;100999.97;5126989;27;19924;-64
2021/08/03 12:53:23;;;;;;;;;;;;;;;19.50;44.57;100999.34;5121716;28;19963;-63
2021/08/03 12:55:53;;;;;;;;;;;;;;;19.32;44.53;101006.69;5107363;28;19970;-63